Time;durP1;ratioP1;P1;durP2;ratioP2;P2;SDS_P1;SDS_P2;PMS_P1;PMS_P2;Temp;Humidity;BMP_temperature;BMP_pressure;BME280_temperature;BME280_humidity;BME280_pressure;Samples;Min_cycle;Max_cycle;Signal;HPM_P1;HPM_P2
2024/01/15 00:03:05;;;;;;;4.37;3.23;;;11.00;99.90;;;;;;10580811;28;20303;-83
2024/01/15 00:08:08;;;;;;;4.13;3.03;;;10.60;99.90;;;;;;10570159;27;20208;-83
2024/01/15 00:13:10;;;;;;;5.23;4.03;;;10.90;99.90;;;;;;10596709;27;20241;-83
2024/01/15 00:18:13;;;;;;;4.07;2.70;;;11.00;99.90;;;;;;10579781;27;20228;-83
2024/01/15 00:23:15;;;;;;;10.03;6.17;;;10.30;99.90;;;;;;10563387;27;20239;-84
2024/01/15 00:28:18;;;;;;;7.77;5.90;;;11.00;99.90;;;;;;10600104;27;20280;-83
2024/01/15 00:33:20;;;;;;;5.43;4.40;;;9.60;99.90;;;;;;10548829;28;20331;-82
2024/01/15 00:38:23;;;;;;;6.20;3.60;;;10.50;99.90;;;;;;10599896;27;20227;-82
2024/01/15 00:43:25;;;;;;;11.23;8.70;;;10.20;99.90;;;;;;10586771;27;20259;-83
2024/01/15 00:48:28;;;;;;;8.70;7.13;;;10.00;99.90;;;;;;10571204;27;20761;-83
2024/01/15 00:53:31;;;;;;;12.47;9.80;;;9.00;99.90;;;;;;10582698;27;20242;-83
2024/01/15 00:58:33;;;;;;;7.07;5.83;;;9.80;99.90;;;;;;10612785;27;20249;-83
2024/01/15 01:03:35;;;;;;;11.60;8.60;;;10.20;99.90;;;;;;10577224;28;20229;-83
2024/01/15 01:08:39;;;;;;;4.37;3.07;;;11.00;99.90;;;;;;10577109;28;20229;-83
2024/01/15 01:13:42;;;;;;;8.13;6.47;;;10.20;99.90;;;;;;10577644;28;20917;-83
2024/01/15 01:18:44;;;;;;;5.97;4.27;;;10.70;99.90;;;;;;10559538;28;20224;-83
2024/01/15 01:23:47;;;;;;;4.67;2.80;;;10.60;99.90;;;;;;10594734;27;20273;-83
2024/01/15 01:28:50;;;;;;;11.27;8.90;;;10.90;99.90;;;;;;10595690;27;20737;-83
2024/01/15 01:33:52;;;;;;;11.63;7.37;;;10.40;99.90;;;;;;10577061;27;20331;-83
2024/01/15 01:38:55;;;;;;;5.80;4.53;;;10.40;99.90;;;;;;10585371;27;20784;-83
2024/01/15 01:43:58;;;;;;;6.73;4.70;;;10.60;99.90;;;;;;10588443;27;20688;-83
2024/01/15 01:49:05;;;;;;;8.20;6.80;;;11.00;99.90;;;;;;10586455;27;20223;-83
2024/01/15 01:54:11;;;;;;;6.23;4.67;;;11.00;99.90;;;;;;10557715;28;20300;-83
2024/01/15 01:59:14;;;;;;;6.00;3.97;;;10.50;99.90;;;;;;10577325;27;20231;-83
2024/01/15 02:04:17;;;;;;;4.07;3.13;;;11.20;99.90;;;;;;10575237;28;20234;-83
2024/01/15 02:09:23;;;;;;;9.37;7.70;;;11.50;99.90;;;;;;10597767;27;20240;-82
2024/01/15 02:14:26;;;;;;;8.40;6.43;;;11.50;99.90;;;;;;10567212;27;20297;-82
2024/01/15 02:19:28;;;;;;;5.13;4.03;;;11.60;99.90;;;;;;10595678;27;20231;-83
2024/01/15 02:24:31;;;;;;;7.40;4.33;;;11.80;99.90;;;;;;10594064;27;20228;-83
2024/01/15 02:29:34;;;;;;;3.60;3.27;;;11.90;99.90;;;;;;10562220;28;20238;-83
2024/01/15 02:34:37;;;;;;;3.83;2.50;;;;;;;;;;10554066;28;20256;-82
2024/01/15 02:39:39;;;;;;;8.93;5.80;;;12.70;99.90;;;;;;10578857;28;20227;-83
2024/01/15 02:44:42;;;;;;;4.57;3.07;;;11.60;99.90;;;;;;10556330;28;20252;-82
2024/01/15 02:49:44;;;;;;;4.30;3.47;;;11.80;99.90;;;;;;10574971;28;20255;-83
2024/01/15 02:54:47;;;;;;;4.43;3.00;;;11.50;99.90;;;;;;10561600;28;20269;-83
2024/01/15 02:59:51;;;;;;;3.97;2.97;;;11.30;99.90;;;;;;10568471;27;20217;-82
2024/01/15 03:04:53;;;;;;;7.90;6.13;;;11.10;99.90;;;;;;10573451;27;20281;-83
2024/01/15 03:09:56;;;;;;;8.53;6.90;;;11.10;99.90;;;;;;10596640;27;20643;-83
2024/01/15 03:14:58;;;;;;;4.77;2.80;;;10.10;99.90;;;;;;10592164;27;20248;-83
2024/01/15 03:20:02;;;;;;;10.40;7.63;;;9.80;99.90;;;;;;10588698;27;20216;-83
2024/01/15 03:25:06;;;;;;;4.87;3.57;;;10.80;99.90;;;;;;10587030;27;20224;-83
2024/01/15 03:30:09;;;;;;;7.37;5.67;;;11.10;99.90;;;;;;10576522;27;20254;-83
2024/01/15 03:35:12;;;;;;;5.50;5.00;;;10.70;99.90;;;;;;10611405;27;20300;-83
2024/01/15 03:40:15;;;;;;;9.20;6.07;;;10.60;99.90;;;;;;10572314;27;20267;-83
2024/01/15 03:45:22;;;;;;;5.03;4.27;;;10.40;99.90;;;;;;10564820;28;20228;-83
2024/01/15 03:50:25;;;;;;;6.30;3.63;;;10.70;99.90;;;;;;10569578;27;20666;-83
2024/01/15 03:55:27;;;;;;;4.10;2.80;;;10.50;99.90;;;;;;10569634;27;20252;-83
2024/01/15 04:00:30;;;;;;;4.43;2.80;;;11.00;99.90;;;;;;10579790;27;20658;-82
2024/01/15 04:05:33;;;;;;;6.20;4.60;;;11.00;99.90;;;;;;10577904;28;20231;-83
2024/01/15 04:10:35;;;;;;;4.50;2.30;;;11.50;99.90;;;;;;10585613;27;20229;-83
2024/01/15 04:15:38;;;;;;;1.87;1.70;;;11.60;99.90;;;;;;10578005;27;20654;-82
2024/01/15 04:20:40;;;;;;;2.70;2.07;;;12.10;99.90;;;;;;10541909;28;20610;-82
2024/01/15 04:25:43;;;;;;;6.90;4.80;;;12.30;99.90;;;;;;10573154;27;20678;-82
2024/01/15 04:30:45;;;;;;;2.73;2.13;;;12.10;99.90;;;;;;10589468;27;20665;-83
2024/01/15 04:35:49;;;;;;;3.03;1.57;;;;;;;;;;10585676;27;20283;-82
2024/01/15 04:40:52;;;;;;;6.90;5.33;;;;;;;;;;10581551;27;20208;-83
2024/01/15 04:45:59;;;;;;;3.10;2.40;;;12.50;99.90;;;;;;10560129;28;20226;-83
2024/01/15 04:51:04;;;;;;;2.07;1.33;;;12.40;99.90;;;;;;10560672;28;20661;-82
2024/01/15 04:56:06;;;;;;;4.47;3.23;;;12.50;99.90;;;;;;10595126;27;20324;-82
2024/01/15 05:01:10;;;;;;;3.83;2.43;;;12.40;99.90;;;;;;10588360;27;20264;-83
2024/01/15 05:06:12;;;;;;;2.97;2.07;;;12.30;99.90;;;;;;10586852;27;20200;-83
2024/01/15 05:11:15;;;;;;;3.57;2.13;;;12.40;99.90;;;;;;10588189;27;20224;-83
2024/01/15 05:16:18;;;;;;;3.33;2.10;;;12.40;99.90;;;;;;10578812;27;20243;-83
2024/01/15 05:21:20;;;;;;;4.10;2.90;;;12.30;99.90;;;;;;10559775;28;20297;-83
2024/01/15 05:26:23;;;;;;;3.50;1.93;;;12.30;99.90;;;;;;10607806;27;20288;-83
2024/01/15 05:31:26;;;;;;;2.37;1.90;;;12.00;99.90;;;;;;10570506;28;20226;-83
2024/01/15 05:36:28;;;;;;;3.20;2.07;;;12.00;99.90;;;;;;10563866;27;20222;-82
2024/01/15 05:41:31;;;;;;;3.77;2.33;;;12.10;99.90;;;;;;10581568;27;20199;-83
2024/01/15 05:46:33;;;;;;;3.03;2.60;;;11.90;99.90;;;;;;10580760;28;20230;-83
2024/01/15 05:51:36;;;;;;;2.73;2.03;;;11.80;99.90;;;;;;10562497;28;20207;-83
2024/01/15 05:56:39;;;;;;;3.70;2.33;;;12.00;99.90;;;;;;10593823;27;20245;-83
2024/01/15 06:01:41;;;;;;;5.30;2.90;;;12.00;99.90;;;;;;10563556;28;20536;-83
2024/01/15 06:06:44;;;;;;;2.17;1.57;;;11.90;99.90;;;;;;10563487;28;20188;-83
2024/01/15 06:11:46;;;;;;;3.17;2.30;;;11.70;99.90;;;;;;10581700;28;20222;-82
2024/01/15 06:16:49;;;;;;;2.90;1.37;;;11.50;99.90;;;;;;10587578;27;20223;-82
2024/01/15 06:21:51;;;;;;;5.87;3.27;;;11.40;99.90;;;;;;10588613;27;20614;-83
2024/01/15 06:26:54;;;;;;;3.67;2.43;;;11.70;99.90;;;;;;10581858;28;20219;-84
2024/01/15 06:31:57;;;;;;;4.27;3.57;;;11.70;99.90;;;;;;10580763;28;20225;-83
2024/01/15 06:36:59;;;;;;;2.57;2.00;;;11.40;99.90;;;;;;10581216;28;20244;-82
2024/01/15 06:42:02;;;;;;;2.63;2.33;;;11.70;99.90;;;;;;10581240;28;20257;-83
2024/01/15 06:47:05;;;;;;;5.60;3.63;;;12.20;99.90;;;;;;10562178;28;20208;-84
2024/01/15 06:52:08;;;;;;;6.80;3.93;;;11.50;99.90;;;;;;10603114;28;20204;-82
2024/01/15 06:57:10;;;;;;;6.57;3.87;;;9.10;99.90;;;;;;10623220;28;20277;-85
2024/01/15 07:02:13;;;;;;;10.40;6.03;;;6.40;99.90;;;;;;10597776;28;20222;-85
2024/01/15 07:07:15;;;;;;;8.90;4.70;;;4.00;99.90;;;;;;10579163;28;20204;-84
2024/01/15 07:12:18;;;;;;;8.83;6.40;;;3.10;99.90;;;;;;10579058;28;20647;-85
2024/01/15 07:17:21;;;;;;;8.87;6.10;;;3.20;99.90;;;;;;10582608;28;20220;-86
2024/01/15 07:22:23;;;;;;;7.13;4.60;;;3.60;99.90;;;;;;10562947;28;20215;-81
2024/01/15 07:27:26;;;;;;;8.03;3.33;;;5.80;99.90;;;;;;10575158;28;20208;-82
2024/01/15 07:32:28;;;;;;;2.37;1.40;;;8.50;99.90;;;;;;10564149;28;20563;-80
2024/01/15 07:37:31;;;;;;;8.33;2.50;;;9.80;99.90;;;;;;10584638;28;20626;-80
2024/01/15 07:42:34;;;;;;;3.40;2.47;;;11.00;99.90;;;;;;10589678;27;20194;-82
2024/01/15 07:47:37;;;;;;;3.03;2.03;;;11.60;99.90;;;;;;10637889;27;20208;-81
2024/01/15 07:52:41;;;;;;;5.60;3.03;;;11.60;99.90;;;;;;10632405;27;20263;-83
2024/01/15 07:57:44;;;;;;;4.50;2.57;;;11.30;99.90;;;;;;10618896;27;20293;-83
2024/01/15 08:02:57;;;;;;;4.70;2.83;;;11.90;99.90;;;;;;10640791;27;20201;-83
2024/01/15 08:07:59;;;;;;;6.33;3.30;;;12.10;99.90;;;;;;10618816;27;20617;-83
2024/01/15 08:13:02;;;;;;;6.63;2.17;;;12.50;99.90;;;;;;10632169;27;20237;-83
2024/01/15 08:18:05;;;;;;;3.63;2.37;;;12.60;99.90;;;;;;10631762;27;20250;-81
2024/01/15 08:23:07;;;;;;;5.77;4.07;;;12.40;99.90;;;;;;10594493;27;20201;-81
2024/01/15 08:28:10;;;;;;;3.93;2.50;;;12.40;99.90;;;;;;10586129;28;20257;-83
2024/01/15 08:33:13;;;;;;;2.73;1.63;;;12.40;99.90;;;;;;10597538;28;20252;-82
2024/01/15 08:38:25;;;;;;;9.73;1.97;;;12.80;99.90;;;;;;10581445;28;20193;-82
2024/01/15 08:43:27;;;;;;;2.57;1.83;;;13.20;99.90;;;;;;10624726;27;20199;-82
2024/01/15 08:48:30;;;;;;;10.63;4.63;;;12.90;99.90;;;;;;10636631;27;20248;-81
2024/01/15 08:53:33;;;;;;;10.10;7.13;;;12.40;99.90;;;;;;10632966;27;20273;-82
2024/01/15 08:58:35;;;;;;;22.40;10.90;;;10.80;99.90;;;;;;10599518;27;20199;-83
2024/01/15 09:03:38;;;;;;;21.67;9.97;;;10.10;99.90;;;;;;10603302;28;20229;-82
2024/01/15 09:08:40;;;;;;;19.30;11.33;;;11.10;99.90;;;;;;10594566;28;20187;-83
2024/01/15 09:13:43;;;;;;;16.73;8.27;;;11.50;99.90;;;;;;10592461;28;20228;-84
2024/01/15 09:18:46;;;;;;;22.10;10.23;;;12.10;99.90;;;;;;10635831;27;20241;-82
2024/01/15 09:23:49;;;;;;;22.17;11.33;;;12.30;99.90;;;;;;10635969;27;20224;-82
2024/01/15 09:28:52;;;;;;;22.27;12.73;;;12.20;99.90;;;;;;10648130;27;20179;-83
2024/01/15 09:33:56;;;;;;;18.83;10.13;;;12.50;99.90;;;;;;10675261;27;20211;-84
2024/01/15 09:38:58;;;;;;;18.47;9.87;;;12.50;99.90;;;;;;10658274;27;20321;-80
2024/01/15 09:44:02;;;;;;;17.73;9.73;;;12.00;99.90;;;;;;10628540;27;20193;-81
2024/01/15 09:49:05;;;;;;;10.60;6.60;;;12.40;99.90;;;;;;10653948;27;20228;-81
2024/01/15 09:54:08;;;;;;;15.70;6.80;;;12.80;99.90;;;;;;10637604;27;20217;-83
2024/01/15 09:59:14;;;;;;;19.67;7.47;;;12.70;99.90;;;;;;10672688;27;20229;-83
2024/01/15 10:04:16;;;;;;;16.37;9.70;;;12.70;99.90;;;;;;10670688;27;20201;-82
2024/01/15 10:09:19;;;;;;;14.93;8.77;;;12.70;99.90;;;;;;10668474;27;20172;-82
2024/01/15 10:14:23;;;;;;;16.13;9.53;;;12.90;99.90;;;;;;10668014;27;20222;-80
2024/01/15 10:19:25;;;;;;;13.80;8.27;;;12.20;99.90;;;;;;10643685;27;20227;-81
2024/01/15 10:24:28;;;;;;;13.47;7.70;;;12.20;99.90;;;;;;10624088;28;20253;-80
2024/01/15 10:29:31;;;;;;;10.30;6.33;;;12.40;99.90;;;;;;10653182;27;20179;-81
2024/01/15 10:34:33;;;;;;;10.93;5.27;;;12.30;99.90;;;;;;10669605;27;20260;-82
2024/01/15 10:39:36;;;;;;;11.00;5.57;;;12.70;99.90;;;;;;10669931;28;20214;-81
2024/01/15 10:44:43;;;;;;;12.73;5.90;;;12.70;99.90;;;;;;10669537;28;20208;-81
2024/01/15 10:49:46;;;;;;;19.03;10.20;;;12.60;99.90;;;;;;10667620;28;20173;-80
2024/01/15 10:54:49;;;;;;;9.80;5.63;;;12.60;99.90;;;;;;10638285;28;20204;-82
2024/01/15 10:59:51;;;;;;;15.53;8.33;;;12.50;99.90;;;;;;10591311;28;20195;-81
2024/01/15 11:04:54;;;;;;;16.37;9.60;;;12.80;99.90;;;;;;10587284;28;20258;-82
2024/01/15 11:10:00;;;;;;;17.93;10.77;;;13.10;99.90;;;;;;10581921;28;20567;-83
2024/01/15 11:15:04;;;;;;;12.17;7.90;;;12.80;99.90;;;;;;10593367;28;20208;-83
2024/01/15 11:20:07;;;;;;;9.77;6.27;;;12.70;99.90;;;;;;10594116;28;20335;-84
2024/01/15 11:25:14;;;;;;;10.67;7.20;;;12.60;99.90;;;;;;10592149;28;20239;-83
2024/01/15 11:30:19;;;;;;;11.80;5.73;;;12.60;99.90;;;;;;10599223;27;20214;-82
2024/01/15 11:35:24;;;;;;;13.60;7.57;;;13.20;99.90;;;;;;10585660;27;20225;-82
2024/01/15 11:40:33;;;;;;;6.43;2.93;;;13.20;99.90;;;;;;10597068;27;20195;-85
2024/01/15 11:45:36;;;;;;;1.87;1.30;;;12.80;99.90;;;;;;10583918;28;20730;-84
2024/01/15 11:50:45;;;;;;;5.10;2.00;;;12.00;99.90;;;;;;10584130;27;20274;-85
2024/01/15 11:55:51;;;;;;;2.87;1.70;;;12.00;99.90;;;;;;10581994;28;20225;-85
2024/01/15 12:00:54;;;;;;;2.60;1.47;;;12.10;99.90;;;;;;10583251;28;20246;-85
2024/01/15 12:05:59;;;;;;;3.93;2.10;;;12.20;99.90;;;;;;10583251;28;20246;-86
2024/01/15 12:11:10;;;;;;;8.33;3.00;;;12.00;99.90;;;;;;10583404;28;20887;-85
2024/01/15 12:16:13;;;;;;;5.63;3.13;;;12.20;99.90;;;;;;10581802;28;20258;-84
2024/01/15 12:21:16;;;;;;;2.97;1.90;;;12.20;99.90;;;;;;10581671;28;20194;-85
2024/01/15 12:26:19;;;;;;;5.87;2.23;;;12.10;99.90;;;;;;10580704;28;20234;-85
2024/01/15 12:31:21;;;;;;;4.00;2.33;;;12.40;99.90;;;;;;10581269;28;20292;-85
2024/01/15 12:36:24;;;;;;;5.30;2.10;;;12.50;99.90;;;;;;10581024;28;20277;-85
2024/01/15 12:41:26;;;;;;;3.27;1.40;;;12.30;99.90;;;;;;10579931;28;20255;-85
2024/01/15 12:46:29;;;;;;;2.77;1.43;;;12.60;99.90;;;;;;10578268;28;20572;-84
2024/01/15 12:51:34;;;;;;;4.90;1.77;;;12.50;99.90;;;;;;10577972;28;20224;-85
2024/01/15 12:56:37;;;;;;;4.73;1.47;;;12.70;99.90;;;;;;10578825;28;20649;-85
2024/01/15 13:01:41;;;;;;;5.80;2.07;;;12.70;99.90;;;;;;10578709;28;20297;-86
2024/01/15 13:06:43;;;;;;;4.30;1.87;;;12.70;99.90;;;;;;10578518;28;20667;-85
2024/01/15 13:11:47;;;;;;;5.93;3.00;;;12.60;99.90;;;;;;10576553;28;20751;-85
2024/01/15 13:16:50;;;;;;;1.60;1.03;;;12.60;99.90;;;;;;10577231;28;20251;-85
2024/01/15 13:21:53;;;;;;;1.70;1.20;;;12.40;99.90;;;;;;10576737;28;20266;-86
2024/01/15 13:26:56;;;;;;;3.03;1.60;;;12.40;99.90;;;;;;10577376;28;20236;-85
2024/01/15 13:31:59;;;;;;;1.93;1.37;;;12.40;99.90;;;;;;10575575;28;20288;-85
2024/01/15 13:37:02;;;;;;;1.83;1.43;;;12.40;99.90;;;;;;10576015;28;20259;-85
2024/01/15 13:42:05;;;;;;;3.53;1.30;;;12.70;99.90;;;;;;10576549;28;20276;-85
2024/01/15 13:47:08;;;;;;;3.27;1.30;;;12.80;99.90;;;;;;10576370;28;20292;-85
2024/01/15 13:52:12;;;;;;;2.80;1.80;;;10.70;99.90;;;;;;10576492;28;20289;-85
2024/01/15 13:57:16;;;;;;;5.10;3.83;;;10.30;99.90;;;;;;10576058;28;20313;-85
2024/01/15 14:02:20;;;;;;;9.47;5.87;;;10.90;99.90;;;;;;10594824;27;20284;-85
2024/01/15 14:07:25;;;;;;;10.23;5.83;;;10.60;99.90;;;;;;10618268;27;20256;-85
2024/01/15 14:12:27;;;;;;;13.67;5.87;;;10.70;99.90;;;;;;10597433;27;20232;-87
2024/01/15 14:17:30;;;;;;;16.33;7.10;;;10.70;99.90;;;;;;10574902;28;20311;-86
2024/01/15 14:22:32;;;;;;;20.07;7.47;;;11.50;99.90;;;;;;10575247;28;20224;-86
2024/01/15 14:27:36;;;;;;;16.93;7.63;;;11.60;99.90;;;;;;10573269;28;20701;-86
2024/01/15 14:32:39;;;;;;;16.80;8.67;;;12.30;99.90;;;;;;10574832;28;20258;-87
2024/01/15 14:37:41;;;;;;;8.27;5.37;;;12.30;99.90;;;;;;10575434;28;20262;-86
2024/01/15 14:42:44;;;;;;;12.83;6.00;;;12.70;99.90;;;;;;10575347;28;20833;-86
2024/01/15 14:47:47;;;;;;;11.90;5.87;;;12.90;99.90;;;;;;10576106;28;20220;-87
2024/01/15 14:52:49;;;;;;;20.13;8.93;;;13.30;99.90;;;;;;10584706;27;20682;-88
2024/01/15 14:57:52;;;;;;;12.83;7.50;;;13.00;99.90;;;;;;10616264;27;20272;-88
2024/01/15 15:02:55;;;;;;;13.03;6.87;;;13.10;99.90;;;;;;10625676;27;20249;-88
2024/01/15 15:07:57;;;;;;;16.07;6.63;;;13.20;99.90;;;;;;10614087;27;20261;-84
2024/01/15 15:13:00;;;;;;;8.20;5.67;;;12.80;99.90;;;;;;10582054;28;20232;-83
2024/01/15 15:18:02;;;;;;;14.30;7.30;;;12.60;99.90;;;;;;10579583;27;20699;-84
2024/01/15 15:23:08;;;;;;;12.27;8.23;;;12.70;99.90;;;;;;10603389;27;20235;-86
2024/01/15 15:28:11;;;;;;;8.10;5.47;;;12.10;99.90;;;;;;10620036;27;20745;-86
2024/01/15 15:33:15;;;;;;;13.17;7.57;;;12.00;99.90;;;;;;10594985;27;20275;-88
2024/01/15 15:38:18;;;;;;;8.70;4.93;;;12.10;99.90;;;;;;10594265;27;20248;-85
2024/01/15 15:43:20;;;;;;;14.87;7.43;;;11.90;99.90;;;;;;10580612;27;20669;-89
2024/01/15 15:48:23;;;;;;;10.73;5.33;;;11.50;99.90;;;;;;10563261;28;20748;-87
2024/01/15 15:53:26;;;;;;;8.13;4.00;;;12.20;99.90;;;;;;10603502;27;20235;-86
2024/01/15 15:58:29;;;;;;;6.27;2.87;;;10.90;99.90;;;;;;10604625;27;20257;-86
2024/01/15 16:03:31;;;;;;;6.30;3.83;;;11.10;99.90;;;;;;10603931;27;20232;-87
2024/01/15 16:08:34;;;;;;;9.10;5.07;;;10.90;99.90;;;;;;10620639;27;20233;-87
2024/01/15 16:13:36;;;;;;;7.20;4.33;;;10.70;99.90;;;;;;10620420;27;20618;-86
2024/01/15 16:18:39;;;;;;;8.17;4.10;;;10.70;99.90;;;;;;10621993;27;20249;-86
2024/01/15 16:24:01;;;;;;;6.03;3.73;;;10.10;99.90;;;;;;10580777;27;20225;-86
2024/01/15 16:29:24;;;;;;;7.00;3.70;;;9.90;99.90;;;;;;10563549;28;20632;-87
2024/01/15 16:34:26;;;;;;;7.00;4.13;;;9.60;99.90;;;;;;10559867;28;20303;-86
2024/01/15 16:39:29;;;;;;;7.70;4.27;;;9.20;99.90;;;;;;10578464;28;20776;-86
2024/01/15 16:44:31;;;;;;;7.73;3.83;;;8.60;99.90;;;;;;10576789;28;20207;-86
2024/01/15 16:49:34;;;;;;;8.60;4.30;;;8.50;99.90;;;;;;10578048;28;20683;-86
2024/01/15 16:54:37;;;;;;;6.70;3.87;;;9.30;99.90;;;;;;10579601;28;20241;-86
2024/01/15 16:59:39;;;;;;;6.40;4.30;;;9.10;99.90;;;;;;10589664;28;20223;-86
2024/01/15 17:04:42;;;;;;;2.63;1.47;;;9.80;99.90;;;;;;10586940;27;20659;-89
2024/01/15 17:09:45;;;;;;;14.03;7.67;;;10.30;99.90;;;;;;10590201;27;20239;-90
2024/01/15 17:14:47;;;;;;;19.60;10.47;;;10.20;99.90;;;;;;10583206;28;20374;-88
2024/01/15 17:19:50;;;;;;;22.77;10.70;;;10.10;99.90;;;;;;10580357;28;20214;-90
2024/01/15 17:24:53;;;;;;;11.20;5.73;;;10.20;99.90;;;;;;10608764;27;20631;-90
2024/01/15 17:29:55;;;;;;;79.20;37.07;;;9.30;99.90;;;;;;10632119;27;20231;-90
2024/01/15 17:34:58;;;;;;;118.17;62.30;;;9.90;99.90;;;;;;10589199;27;20286;-87
2024/01/15 17:40:03;;;;;;;97.73;48.00;;;10.60;99.90;;;;;;10573324;28;20217;-86
2024/01/15 17:45:08;;;;;;;58.10;28.63;;;11.30;99.90;;;;;;10580601;27;20197;-89
2024/01/15 17:50:11;;;;;;;49.20;26.00;;;11.50;99.90;;;;;;10601935;28;20197;-89
2024/01/15 17:55:15;;;;;;;69.27;31.77;;;12.10;99.90;;;;;;10591570;28;20631;-84
2024/01/15 18:00:18;;;;;;;43.53;26.03;;;11.90;99.90;;;;;;10603213;27;20569;-84
2024/01/15 18:05:21;;;;;;;39.97;21.00;;;12.00;99.90;;;;;;10634540;27;20211;-85
2024/01/15 18:10:24;;;;;;;79.37;38.23;;;11.40;99.90;;;;;;10614868;27;20200;-87
2024/01/15 18:15:26;;;;;;;41.27;23.53;;;12.30;99.90;;;;;;10593468;28;20583;-88
2024/01/15 18:20:29;;;;;;;34.97;19.20;;;11.40;99.90;;;;;;10589115;28;20205;-89
2024/01/15 18:25:34;;;;;;;51.03;27.67;;;11.50;99.90;;;;;;10591284;28;20243;-90
2024/01/15 18:30:36;;;;;;;33.30;20.30;;;11.00;99.90;;;;;;10586657;28;20224;-88
2024/01/15 18:35:41;;;;;;;35.03;17.63;;;11.90;99.90;;;;;;10588006;28;20657;-88
2024/01/15 18:40:46;;;;;;;42.67;23.10;;;12.50;99.90;;;;;;10581010;28;20197;-87
2024/01/15 18:45:49;;;;;;;33.03;18.97;;;11.40;99.90;;;;;;10579129;28;20258;-86
2024/01/15 18:50:51;;;;;;;28.97;16.80;;;11.80;99.90;;;;;;10580477;28;20193;-89
2024/01/15 18:55:55;;;;;;;29.97;14.73;;;12.30;99.90;;;;;;10567084;28;20248;-88
2024/01/15 19:00:59;;;;;;;24.00;12.63;;;12.70;99.90;;;;;;10542115;28;20214;-88
2024/01/15 19:06:01;;;;;;;26.10;15.47;;;13.00;99.90;;;;;;10531709;28;20297;-89
2024/01/15 19:11:04;;;;;;;29.47;16.40;;;13.20;99.90;;;;;;10541951;28;20656;-89
2024/01/15 19:16:06;;;;;;;27.43;16.80;;;12.70;99.90;;;;;;10571515;28;20313;-88
2024/01/15 19:21:09;;;;;;;29.77;17.50;;;12.20;99.90;;;;;;10573296;28;20238;-87
2024/01/15 19:26:18;;;;;;;24.13;15.43;;;12.30;99.90;;;;;;10544423;28;20596;-91
2024/01/15 19:31:23;;;;;;;30.67;16.50;;;11.00;99.90;;;;;;10555394;28;20256;-91
2024/01/15 19:36:26;;;;;;;26.87;15.77;;;10.90;99.90;;;;;;10567250;28;20302;-91
2024/01/15 19:41:31;;;;;;;10.83;7.97;;;11.10;99.90;;;;;;10565510;28;20278;-86
2024/01/15 19:46:34;;;;;;;27.20;15.00;;;11.50;99.90;;;;;;10574277;28;20235;-86
2024/01/15 19:51:37;;;;;;;17.13;10.53;;;11.20;99.90;;;;;;10579211;27;20219;-90
2024/01/15 19:56:39;;;;;;;16.83;10.27;;;11.20;99.90;;;;;;10580235;28;20293;-86
2024/01/15 20:01:45;;;;;;;21.43;12.30;;;10.80;99.90;;;;;;10577161;28;20805;-83
2024/01/15 20:06:48;;;;;;;12.63;8.47;;;10.80;99.90;;;;;;10578616;28;20220;-86
2024/01/15 20:11:53;;;;;;;19.20;11.43;;;10.50;99.90;;;;;;10577322;27;20285;-88
2024/01/15 20:17:00;;;;;;;13.73;8.33;;;10.40;99.90;;;;;;10576403;28;20679;-87
2024/01/15 20:22:03;;;;;;;16.37;10.30;;;10.40;99.90;;;;;;10577343;28;20604;-91
2024/01/15 20:27:05;;;;;;;28.93;14.53;;;10.60;99.90;;;;;;10581426;28;20197;-91
2024/01/15 20:32:08;;;;;;;10.93;8.23;;;10.30;99.90;;;;;;10575434;28;20798;-87
2024/01/15 20:37:11;;;;;;;21.30;11.50;;;9.40;99.90;;;;;;10577001;27;20305;-86
2024/01/15 20:42:18;;;;;;;23.87;13.23;;;9.80;99.90;;;;;;10573674;28;20205;-88
2024/01/15 20:47:21;;;;;;;13.67;8.80;;;10.20;99.90;;;;;;10576703;28;20246;-87
2024/01/15 20:52:23;;;;;;;18.07;9.93;;;10.60;99.90;;;;;;10572832;28;20317;-87
2024/01/15 20:57:29;;;;;;;19.67;11.13;;;11.60;99.90;;;;;;10567435;27;20302;-86
2024/01/15 21:02:31;;;;;;;16.53;10.57;;;11.70;99.90;;;;;;10573510;28;20619;-87
2024/01/15 21:07:34;;;;;;;17.33;8.27;;;11.70;99.90;;;;;;10576019;28;20221;-87
2024/01/15 21:12:37;;;;;;;11.67;7.73;;;11.60;99.90;;;;;;10575697;28;20689;-87
2024/01/15 21:17:40;;;;;;;14.73;8.87;;;11.80;99.90;;;;;;10560481;27;20259;-87
2024/01/15 21:22:43;;;;;;;8.17;6.20;;;11.20;99.90;;;;;;10563570;28;20247;-90
2024/01/15 21:27:46;;;;;;;6.87;4.43;;;11.30;99.90;;;;;;10570725;28;20299;-88
2024/01/15 21:32:49;;;;;;;15.33;9.13;;;10.80;99.90;;;;;;10564939;27;20778;-90
2024/01/15 21:37:51;;;;;;;14.20;7.80;;;11.40;99.90;;;;;;10576536;28;20278;-88
2024/01/15 21:42:55;;;;;;;10.17;6.17;;;11.30;99.90;;;;;;10569944;27;20224;-88
2024/01/15 21:47:58;;;;;;;9.70;6.30;;;10.90;99.90;;;;;;10565764;27;20249;-90
2024/01/15 21:53:04;;;;;;;15.90;7.70;;;11.60;99.90;;;;;;10576939;28;20227;-88
2024/01/15 21:58:06;;;;;;;6.73;5.57;;;11.60;99.90;;;;;;10582537;27;20253;-91
2024/01/15 22:03:09;;;;;;;12.87;8.73;;;11.80;99.90;;;;;;10550691;28;20237;-88
2024/01/15 22:08:11;;;;;;;13.63;8.30;;;12.10;99.90;;;;;;10585850;27;20229;-88
2024/01/15 22:13:14;;;;;;;22.30;8.90;;;11.30;99.90;;;;;;10589411;27;20266;-88
2024/01/15 22:18:16;;;;;;;9.03;5.10;;;10.50;99.90;;;;;;10569708;27;20266;-89
2024/01/15 22:23:19;;;;;;;11.53;7.77;;;10.00;99.90;;;;;;10581826;27;20259;-90
2024/01/15 22:28:22;;;;;;;9.27;6.33;;;10.80;99.90;;;;;;10575882;28;20232;-88
2024/01/15 22:33:25;;;;;;;8.47;5.80;;;10.10;99.90;;;;;;10560589;28;20336;-88
2024/01/15 22:38:28;;;;;;;6.97;4.60;;;10.10;99.90;;;;;;10574763;28;20970;-86
2024/01/15 22:43:30;;;;;;;8.83;5.37;;;10.60;99.90;;;;;;10571200;28;20277;-88
2024/01/15 22:48:33;;;;;;;8.40;5.20;;;10.40;99.90;;;;;;10575282;28;20232;-89
2024/01/15 22:53:35;;;;;;;8.93;5.43;;;10.10;99.90;;;;;;10551124;28;20200;-89
2024/01/15 22:58:38;;;;;;;10.70;5.33;;;9.40;99.90;;;;;;10575172;28;20642;-89
2024/01/15 23:03:41;;;;;;;7.47;4.60;;;9.20;99.90;;;;;;10543476;28;20680;-89
2024/01/15 23:08:44;;;;;;;10.87;3.73;;;9.60;99.90;;;;;;10595035;28;20683;-88
2024/01/15 23:13:46;;;;;;;5.27;3.93;;;9.20;99.90;;;;;;10576065;27;20263;-87
2024/01/15 23:18:49;;;;;;;11.13;6.17;;;7.70;99.90;;;;;;10602713;27;20260;-88
2024/01/15 23:23:51;;;;;;;10.57;5.73;;;8.20;99.90;;;;;;10612421;27;20285;-89
2024/01/15 23:28:54;;;;;;;11.40;4.23;;;8.30;99.90;;;;;;10582807;27;20741;-88
2024/01/15 23:33:56;;;;;;;16.43;5.90;;;6.70;99.90;;;;;;10582404;27;20264;-88
2024/01/15 23:38:59;;;;;;;12.83;6.40;;;6.00;99.90;;;;;;10580514;28;20268;-88
2024/01/15 23:44:04;;;;;;;13.17;7.13;;;5.90;99.90;;;;;;10579879;28;20264;-88
2024/01/15 23:49:06;;;;;;;13.00;8.07;;;5.30;99.90;;;;;;10581030;28;20252;-88
2024/01/15 23:54:10;;;;;;;7.50;4.80;;;5.30;99.90;;;;;;10557991;28;20221;-89
2024/01/15 23:59:13;;;;;;;9.60;4.73;;;5.60;99.90;;;;;;10553723;27;20265;-89
